Scottsbluff, Nebraska
Current Conditions -  °F | °C
As of 10:53 AM on Thursday 30 Oct 2014 (Local Time) from KBFF Reporting Station
Clear Clear  
Wind Chill: 54°   Ceiling: Unl
Heat Index: 54°   Visibility: 10mi
Dew Point: 33°   Wind: 8mph
Humidity: 45%   Direction: 280°W
Pressure: 30.35"   Gusts: NA
Location:  41.86°N, 103.66°W
Report Text: KBFF 301653Z AUTO 28007KT 10SM CLR 12/01 A3035 RMK AO2 SLP272 T01220006
Loading
Personal Weather Stations






























Interactive Weather Map
Tropical Storm Tracking
New forecast layout! Learn more

10-Day Weather Forecast

Advertisements
Track Severe Weather on mobile